Terminal Aerodrome Forecast
Issued by NWS Huntsville, AL

Home | Current Version | Previous Version | Text Only | Print | Product List | Glossary On
Versions: 1 2 3 4 5 6 7 8 9 10 11 12 13
000
FTUS44 KHUN 202326
TAFHSV
TAF
KHSV 202326Z 2100/2124 VRB03KT P6SM SCT250
     FM211400 18010KT P6SM BKN120
     FM211900 21010KT P6SM BKN050=

USA.gov is the U.S. government's official web portal to all federal, state and local government web resources and services.